EWG7HP EDDL-EDXW
Flight info
| Callsign | EWG7HP |
|---|---|
| Flight time | N/A |
| Altitude | 23000 |
| Route | MEVEL4T/23L MEVEL Y850 JUWGI Z529 SUQIF DCT ABFAD DCT OLDIP |
| Aircraft | A319/M-SDE3FGHIRWY/LB1 |
Departure
| Time | 2026-05-01 15:31 |
|---|---|
| Airport | Düsseldorf Airport (EDDL) |
Arrival
| Time | N/A |
|---|---|
| Airport | Westerland Sylt Airport (EDXW) |
| Time | Latitude | Longitude | Altitude | Speed | Heading |
|---|---|---|---|---|---|
| 2026-05-01 15:04 | 51.28150 | 6.76551 | 130 ft | 0 kts | 97° |
| 2026-05-01 15:20 | 51.28152 | 6.76518 | 130 ft | 4 kts | 92° |
| 2026-05-01 15:21 | 51.28152 | 6.76475 | 131 ft | 4 kts | 82° |
| 2026-05-01 15:21 | 51.28145 | 6.76435 | 132 ft | 4 kts | 48° |
| 2026-05-01 15:21 | 51.28132 | 6.76421 | 132 ft | 1 kts | 6° |
| 2026-05-01 15:21 | 51.28129 | 6.76421 | 132 ft | 1 kts | 6° |
| 2026-05-01 15:24 | 51.28131 | 6.76421 | 132 ft | 1 kts | 6° |
| 2026-05-01 15:24 | 51.28137 | 6.76422 | 132 ft | 1 kts | 6° |
| 2026-05-01 15:24 | 51.28149 | 6.76424 | 132 ft | 2 kts | 6° |
| 2026-05-01 15:24 | 51.28166 | 6.76427 | 133 ft | 3 kts | 6° |
| 2026-05-01 15:25 | 51.28199 | 6.76433 | 133 ft | 7 kts | 7° |
| 2026-05-01 15:25 | 51.28250 | 6.76468 | 132 ft | 9 kts | 43° |
| 2026-05-01 15:25 | 51.28317 | 6.76488 | 133 ft | 12 kts | 326° |
| 2026-05-01 15:25 | 51.28364 | 6.76506 | 133 ft | 8 kts | 52° |
| 2026-05-01 15:26 | 51.28405 | 6.76593 | 134 ft | 12 kts | 54° |
| 2026-05-01 15:26 | 51.28457 | 6.76711 | 136 ft | 13 kts | 54° |
| 2026-05-01 15:26 | 51.28514 | 6.76830 | 139 ft | 14 kts | 52° |
| 2026-05-01 15:26 | 51.28584 | 6.76975 | 140 ft | 18 kts | 52° |
| 2026-05-01 15:27 | 51.28662 | 6.77140 | 142 ft | 20 kts | 53° |
| 2026-05-01 15:27 | 51.28752 | 6.77331 | 141 ft | 23 kts | 53° |
| 2026-05-01 15:27 | 51.28847 | 6.77531 | 139 ft | 21 kts | 52° |
| 2026-05-01 15:28 | 51.28972 | 6.77614 | 144 ft | 5 kts | 322° |
| 2026-05-01 15:28 | 51.28973 | 6.77612 | 144 ft | 0 kts | 322° |
| 2026-05-01 15:29 | 51.29019 | 6.77554 | 143 ft | 9 kts | 322° |
| 2026-05-01 15:30 | 51.29019 | 6.77412 | 141 ft | 10 kts | 199° |
| 2026-05-01 15:31 | 51.27356 | 6.73830 | 1332 ft | 152 kts | 226° |
| 2026-05-01 15:31 | 51.27072 | 6.70199 | 2138 ft | 209 kts | 302° |
| 2026-05-01 15:32 | 51.29768 | 6.68518 | 3391 ft | 225 kts | 6° |
| 2026-05-01 15:32 | 51.33131 | 6.68964 | 4816 ft | 250 kts | 5° |
| 2026-05-01 15:33 | 51.38459 | 6.70075 | 7170 ft | 279 kts | 30° |
| 2026-05-01 15:34 | 51.43530 | 6.75475 | 9569 ft | 301 kts | 36° |